createdAt,value
2023-03-26T00:02:17.735Z,99533.78
2023-03-26T00:04:49.848Z,99498.28
2023-03-26T00:07:21.302Z,99535.53
2023-03-26T00:09:53.350Z,99521.56
2023-03-26T00:12:25.670Z,99506.78
2023-03-26T00:14:57.072Z,99550.31
2023-03-26T00:17:28.481Z,99538.91
2023-03-26T00:19:59.852Z,99536.56
2023-03-26T00:22:31.281Z,99563.50
2023-03-26T00:25:02.834Z,99557.44
2023-03-26T00:27:34.229Z,99534.09
2023-03-26T00:30:06.660Z,99553.09
2023-03-26T00:32:38.636Z,99556.66
2023-03-26T00:35:11.015Z,99579.34
2023-03-26T00:37:43.154Z,99470.91
2023-03-26T00:40:14.588Z,99569.94
2023-03-26T00:42:46.090Z,99561.28
2023-03-26T00:45:21.332Z,99574.28
2023-03-26T00:47:52.931Z,99582.06
2023-03-26T00:50:24.323Z,99478.88
2023-03-26T00:52:55.884Z,99543.31
2023-03-26T00:55:27.237Z,99600.63
2023-03-26T00:57:58.743Z,99594.59
2023-03-26T01:00:34.820Z,99564.47
2023-03-26T01:03:06.715Z,99604.44
2023-03-26T01:05:43.643Z,99623.88
2023-03-26T01:08:22.635Z,99606.44
2023-03-26T01:11:02.633Z,99600.56
2023-03-26T01:13:38.209Z,99514.75
2023-03-26T01:16:20.318Z,99561.59
2023-03-26T01:18:52.713Z,99599.06
2023-03-26T01:21:29.931Z,99604.31
2023-03-26T01:24:09.667Z,99610.59
2023-03-26T01:27:04.733Z,99616.75
2023-03-26T01:29:54.183Z,99568.28
2023-03-26T01:32:45.379Z,99630.88
2023-03-26T01:35:42.089Z,99638.81
2023-03-26T01:38:40.347Z,99524.06
2023-03-26T01:41:36.573Z,99630.09
2023-03-26T01:44:37.102Z,99610.28
2023-03-26T01:47:10.418Z,99633.00
2023-03-26T01:49:41.921Z,99521.91
2023-03-26T01:52:17.346Z,99634.78
2023-03-26T01:54:49.311Z,99625.31
2023-03-26T01:57:37.515Z,99532.44
2023-03-26T02:00:21.346Z,99601.25
2023-03-26T02:02:59.215Z,99638.56
2023-03-26T02:05:43.972Z,99615.91
2023-03-26T02:08:24.414Z,99529.81
2023-03-26T02:10:58.600Z,99518.44
2023-03-26T02:13:30.210Z,99618.41
2023-03-26T02:16:04.491Z,99531.59
2023-03-26T02:18:41.742Z,99632.31
2023-03-26T02:21:20.134Z,99626.25
2023-03-26T02:24:02.542Z,99562.03
2023-03-26T02:26:35.335Z,99545.66
2023-03-26T02:29:06.841Z,99622.13
2023-03-26T02:31:38.223Z,99612.69
2023-03-26T02:34:09.607Z,99629.03
2023-03-26T02:36:42.945Z,99634.28
2023-03-26T02:39:14.684Z,99550.00
2023-03-26T02:41:46.036Z,99622.19
2023-03-26T02:44:17.405Z,99616.97
2023-03-26T02:46:48.708Z,99541.44
2023-03-26T02:49:20.289Z,99550.09
2023-03-26T02:51:56.183Z,99635.19
2023-03-26T02:54:27.572Z,99623.78
2023-03-26T02:56:59.279Z,99615.00
2023-03-26T02:59:30.938Z,99609.78
2023-03-26T03:02:02.333Z,99607.00
2023-03-26T03:04:33.843Z,99559.16
2023-03-26T03:07:05.670Z,99606.06
2023-03-26T03:09:37.041Z,99606.09
2023-03-26T03:12:08.622Z,99613.84
2023-03-26T03:14:40.727Z,99599.03
2023-03-26T03:17:12.082Z,99599.00
2023-03-26T03:19:43.427Z,99599.06
2023-03-26T03:22:14.789Z,99608.53
2023-03-26T03:24:46.403Z,99606.81
2023-03-26T03:27:23.795Z,99517.25
2023-03-26T03:29:55.867Z,99603.38
2023-03-26T03:32:27.654Z,99590.31
2023-03-26T03:34:59.348Z,99612.22
2023-03-26T03:37:30.961Z,99603.53
2023-03-26T03:40:02.546Z,99511.50
2023-03-26T03:42:33.905Z,99602.78
2023-03-26T03:45:06.533Z,99620.16
2023-03-26T03:47:39.151Z,99623.66
2023-03-26T03:50:11.890Z,99575.13
2023-03-26T03:52:43.271Z,99615.16
2023-03-26T03:55:15.181Z,99617.78
2023-03-26T03:57:46.747Z,99625.69
2023-03-26T04:00:18.299Z,99587.38
2023-03-26T04:02:49.852Z,99615.34
2023-03-26T04:05:21.646Z,99606.69
2023-03-26T04:07:52.994Z,99620.47
2023-03-26T04:10:24.398Z,99604.91
2023-03-26T04:12:55.861Z,99628.31
2023-03-26T04:15:27.239Z,99614.50
2023-03-26T04:17:58.723Z,99605.00
2023-03-26T04:20:30.133Z,99628.59
2023-03-26T04:23:01.816Z,99613.75
2023-03-26T04:25:36.567Z,99617.25
2023-03-26T04:28:08.944Z,99605.16
2023-03-26T04:30:42.377Z,99630.38
2023-03-26T04:33:15.589Z,99622.56
2023-03-26T04:35:51.107Z,99624.25
2023-03-26T04:38:22.872Z,99609.56
2023-03-26T04:40:54.212Z,99599.13
2023-03-26T04:43:26.589Z,99620.09
2023-03-26T04:45:58.293Z,99610.53
2023-03-26T04:48:30.319Z,99533.19
2023-03-26T04:51:01.745Z,99594.88
2023-03-26T04:53:34.093Z,99618.34
2023-03-26T04:56:38.090Z,99560.88
2023-03-26T04:59:14.845Z,99510.53
2023-03-26T05:01:46.201Z,99569.66
2023-03-26T05:04:17.588Z,99594.94
2023-03-26T05:06:49.330Z,99612.47
2023-03-26T05:09:21.632Z,99589.72
2023-03-26T05:11:53.503Z,99575.91
2023-03-26T05:14:24.921Z,99566.41
2023-03-26T05:16:56.987Z,99579.41
2023-03-26T05:19:28.320Z,99603.69
2023-03-26T05:21:59.675Z,99617.66
2023-03-26T05:24:31.208Z,99534.19
2023-03-26T05:27:02.619Z,99613.38
2023-03-26T05:29:33.992Z,99578.59
2023-03-26T05:32:06.958Z,99563.75
2023-03-26T05:35:35.248Z,99627.28
2023-03-26T05:38:06.679Z,99628.25
2023-03-26T05:40:38.280Z,99548.09
2023-03-26T05:43:09.606Z,99629.91
2023-03-26T05:45:41.102Z,99605.47
2023-03-26T05:48:13.428Z,99608.97
2023-03-26T05:50:44.852Z,99605.53
2023-03-26T05:53:16.303Z,99537.72
2023-03-26T05:55:58.107Z,99534.16
2023-03-26T05:58:32.548Z,99620.09
2023-03-26T06:01:08.673Z,99596.63
2023-03-26T06:03:40.473Z,99627.84
2023-03-26T06:06:17.529Z,99578.28
2023-03-26T06:09:01.846Z,99632.13
2023-03-26T06:11:34.168Z,99612.94
2023-03-26T06:14:06.963Z,99586.84
2023-03-26T06:16:38.293Z,99622.44
2023-03-26T06:19:09.818Z,99640.59
2023-03-26T06:21:41.204Z,99618.72
2023-03-26T06:24:12.567Z,99539.66
2023-03-26T06:26:43.910Z,99609.94
2023-03-26T06:29:15.413Z,99618.53
2023-03-26T06:31:46.863Z,99611.69
2023-03-26T06:34:18.555Z,99627.34
2023-03-26T06:36:52.541Z,99585.63
2023-03-26T06:39:24.203Z,99622.94
2023-03-26T06:41:55.519Z,99617.53
2023-03-26T06:44:26.930Z,99651.31
2023-03-26T06:46:58.362Z,99543.34
2023-03-26T06:49:29.876Z,99602.47
2023-03-26T06:52:02.883Z,99639.88
2023-03-26T06:54:34.246Z,99634.72
2023-03-26T06:57:05.896Z,99640.94
2023-03-26T06:59:37.258Z,99592.22
2023-03-26T07:02:11.348Z,99556.44
2023-03-26T07:04:42.695Z,99554.53
2023-03-26T07:07:14.246Z,99634.56
2023-03-26T07:09:45.676Z,99656.47
2023-03-26T07:12:17.460Z,99646.78
2023-03-26T07:14:48.790Z,99634.94
2023-03-26T07:17:20.181Z,99557.66
2023-03-26T07:19:53.258Z,99636.91
2023-03-26T07:22:25.544Z,99638.72
2023-03-26T07:24:57.160Z,99640.34
2023-03-26T07:28:03.547Z,99554.06
2023-03-26T07:30:53.760Z,99650.22
2023-03-26T07:33:35.025Z,99646.47
2023-03-26T07:36:34.139Z,99632.50
2023-03-26T07:39:21.629Z,99608.13
2023-03-26T07:42:08.039Z,99602.88
2023-03-26T07:44:45.478Z,99660.06
2023-03-26T07:47:31.420Z,99657.22
2023-03-26T07:50:04.219Z,99595.16
2023-03-26T07:52:35.809Z,99652.94
2023-03-26T07:55:07.882Z,99638.00
2023-03-26T07:57:52.677Z,99640.63
2023-03-26T08:00:29.259Z,99635.19
2023-03-26T08:03:46.421Z,99586.75
2023-03-26T08:06:38.400Z,99586.63
2023-03-26T08:09:25.656Z,99612.34
2023-03-26T08:12:04.134Z,99650.31
2023-03-26T08:14:55.507Z,99553.09
2023-03-26T08:17:32.896Z,99633.75
2023-03-26T08:20:11.171Z,99650.25
2023-03-26T08:22:45.599Z,99593.81
2023-03-26T08:25:46.829Z,99642.66
2023-03-26T08:28:34.740Z,99640.28
2023-03-26T08:31:09.775Z,99638.75
2023-03-26T08:33:41.135Z,99624.91
2023-03-26T08:36:12.635Z,99649.31
2023-03-26T08:38:46.342Z,99605.13
2023-03-26T08:41:49.505Z,99641.63
2023-03-26T08:45:01.962Z,99615.00
2023-03-26T08:47:48.009Z,99670.66
2023-03-26T08:50:31.288Z,99633.06
2023-03-26T08:53:45.792Z,99575.22
2023-03-26T08:56:47.379Z,99662.63
2023-03-26T08:59:36.751Z,99668.50
2023-03-26T09:02:21.897Z,99649.31
2023-03-26T09:04:59.401Z,99667.38
2023-03-26T09:07:57.969Z,99668.44
2023-03-26T09:10:35.177Z,99664.81
2023-03-26T09:13:25.540Z,99675.16
2023-03-26T09:16:18.238Z,99678.13
2023-03-26T09:19:08.424Z,99670.84
2023-03-26T09:22:06.941Z,99658.66
2023-03-26T09:25:11.382Z,99672.72
2023-03-26T09:28:14.153Z,99690.00
2023-03-26T09:31:15.500Z,99674.81
2023-03-26T09:34:00.138Z,99643.44
2023-03-26T09:36:50.382Z,99687.09
2023-03-26T09:39:36.445Z,99652.03
2023-03-26T09:42:24.229Z,99592.19
2023-03-26T09:45:23.196Z,99678.28
2023-03-26T09:48:05.640Z,99684.03
2023-03-26T09:50:57.769Z,99623.31
2023-03-26T09:54:18.227Z,99644.28
2023-03-26T09:57:06.118Z,99701.31
2023-03-26T10:00:04.819Z,99650.19
2023-03-26T10:02:49.640Z,99686.38
2023-03-26T10:06:00.657Z,99681.88
2023-03-26T10:08:58.162Z,99692.25
2023-03-26T10:11:50.205Z,99694.41
2023-03-26T10:14:42.619Z,99696.00
2023-03-26T10:17:29.261Z,99690.34
2023-03-26T10:20:05.395Z,99681.56
2023-03-26T10:23:02.792Z,99692.94
2023-03-26T10:25:46.900Z,99692.09
2023-03-26T10:28:45.411Z,99650.53
2023-03-26T10:31:57.710Z,99684.72
2023-03-26T10:34:48.460Z,99686.69
2023-03-26T10:37:55.202Z,99678.25
2023-03-26T10:40:35.844Z,99663.34
2023-03-26T10:43:31.607Z,99679.78
2023-03-26T10:46:34.890Z,99686.09
2023-03-26T10:49:28.376Z,99675.31
2023-03-26T10:52:05.139Z,99673.88
2023-03-26T10:54:56.931Z,99671.00
2023-03-26T10:57:41.200Z,99629.66
2023-03-26T11:00:25.363Z,99646.81
2023-03-26T11:03:09.175Z,99689.81
2023-03-26T11:05:52.519Z,99679.25
2023-03-26T11:08:41.628Z,99650.50
2023-03-26T11:11:22.291Z,99671.88
2023-03-26T11:14:10.415Z,99649.97
2023-03-26T11:17:40.646Z,99675.41
2023-03-26T11:20:57.181Z,99679.88
2023-03-26T11:24:30.202Z,99661.16
2023-03-26T11:27:14.915Z,99655.75
2023-03-26T11:30:11.355Z,99675.00
2023-03-26T11:32:46.983Z,99617.78
2023-03-26T11:35:40.625Z,99664.16
2023-03-26T11:38:24.711Z,99667.09
2023-03-26T11:40:58.536Z,99660.38
2023-03-26T11:43:36.878Z,99665.94
2023-03-26T11:46:13.334Z,99654.84
2023-03-26T11:48:49.115Z,99666.22
2023-03-26T11:51:30.785Z,99659.59
2023-03-26T11:54:03.972Z,99664.00
2023-03-26T11:57:05.568Z,99675.13
2023-03-26T11:59:57.117Z,99672.94
2023-03-26T12:02:37.735Z,99661.63
2023-03-26T12:05:13.383Z,99657.16
2023-03-26T12:07:51.179Z,99664.41
2023-03-26T12:10:25.675Z,99671.00
2023-03-26T12:13:00.648Z,99656.91
2023-03-26T12:15:32.673Z,99652.50
2023-03-26T12:18:23.608Z,99643.88
2023-03-26T12:21:17.675Z,99661.38
2023-03-26T12:24:04.840Z,99580.91
2023-03-26T12:26:41.736Z,99655.72
2023-03-26T12:29:16.381Z,99597.38
2023-03-26T12:32:04.577Z,99607.19
2023-03-26T12:34:39.460Z,99640.25
2023-03-26T12:37:38.892Z,99653.03
2023-03-26T12:40:25.448Z,99666.50
2023-03-26T12:44:54.133Z,99664.97
2023-03-26T12:47:54.475Z,99617.75
2023-03-26T12:48:47.410Z,99653.25
2023-03-26T12:51:26.175Z,99656.47
2023-03-26T12:54:06.777Z,99668.66
2023-03-26T12:57:11.756Z,99663.56
2023-03-26T13:00:10.696Z,99594.91
2023-03-26T13:03:03.936Z,99663.13
2023-03-26T13:05:54.532Z,99673.84
2023-03-26T13:09:04.962Z,99656.06
2023-03-26T13:11:51.606Z,99570.97
2023-03-26T13:14:38.687Z,99673.28
2023-03-26T13:17:22.868Z,99656.22
2023-03-26T13:20:12.495Z,99668.13
2023-03-26T13:23:10.179Z,99643.34
2023-03-26T13:26:00.129Z,99655.03
2023-03-26T13:29:05.096Z,99652.63
2023-03-26T13:31:45.516Z,99655.84
2023-03-26T13:34:38.114Z,99649.34
2023-03-26T13:37:27.013Z,99612.94
2023-03-26T13:40:15.906Z,99633.16
2023-03-26T13:43:06.701Z,99622.84
2023-03-26T13:46:09.241Z,99659.91
2023-03-26T13:48:57.564Z,99653.75
2023-03-26T13:51:37.161Z,99657.47
2023-03-26T13:54:14.151Z,99654.66
2023-03-26T13:56:59.539Z,99569.28
2023-03-26T13:59:39.420Z,99625.59
2023-03-26T14:02:35.886Z,99647.56
2023-03-26T14:05:17.263Z,99559.75
2023-03-26T14:08:10.579Z,99646.38
2023-03-26T14:10:47.409Z,99649.34
2023-03-26T14:13:31.070Z,99611.53
2023-03-26T14:16:20.435Z,99632.09
2023-03-26T14:19:13.597Z,99647.75
2023-03-26T14:22:14.971Z,99636.44
2023-03-26T14:25:29.988Z,99631.06
2023-03-26T14:28:20.483Z,99656.97
2023-03-26T14:31:08.699Z,99629.44
2023-03-26T14:34:02.239Z,99625.84
2023-03-26T14:36:52.819Z,99666.78
2023-03-26T14:39:30.177Z,99663.47
2023-03-26T14:42:40.412Z,99653.72
2023-03-26T14:45:33.333Z,99658.56
2023-03-26T14:48:10.871Z,99637.63
2023-03-26T14:50:58.901Z,99623.78
2023-03-26T14:53:36.436Z,99638.72
2023-03-26T14:56:19.845Z,99650.91
2023-03-26T14:59:13.096Z,99666.25
2023-03-26T15:02:07.130Z,99663.38
2023-03-26T15:04:41.475Z,99661.00
2023-03-26T15:07:30.160Z,99635.66
2023-03-26T15:10:41.310Z,99660.03
2023-03-26T15:13:26.946Z,99602.94
2023-03-26T15:16:23.506Z,99657.91
2023-03-26T15:19:25.797Z,99652.59
2023-03-26T15:22:36.635Z,99660.31
2023-03-26T15:25:45.953Z,99672.31
2023-03-26T15:28:53.058Z,99676.41
2023-03-26T15:31:42.693Z,99671.16
2023-03-26T15:34:48.600Z,99659.06
2023-03-26T15:37:51.706Z,99656.94
2023-03-26T15:40:33.926Z,99670.31
2023-03-26T15:43:11.074Z,99687.53
2023-03-26T15:45:47.918Z,99684.28
2023-03-26T15:48:54.802Z,99666.19
2023-03-26T15:51:47.640Z,99673.34
2023-03-26T15:54:44.309Z,99684.91
2023-03-26T15:57:28.563Z,99687.75
2023-03-26T16:00:22.588Z,99693.66
2023-03-26T16:03:14.131Z,99635.13
2023-03-26T16:06:28.177Z,99687.81
2023-03-26T16:09:35.194Z,99662.47
2023-03-26T16:12:12.469Z,99705.16
2023-03-26T16:15:05.876Z,99704.28
2023-03-26T16:18:09.372Z,99696.19
2023-03-26T16:20:54.823Z,99692.78
2023-03-26T16:23:47.940Z,99604.03
2023-03-26T16:26:23.516Z,99701.38
2023-03-26T16:29:14.979Z,99636.66
2023-03-26T16:32:26.045Z,99706.44
2023-03-26T16:35:40.238Z,99705.28
2023-03-26T16:38:18.377Z,99656.13
2023-03-26T16:41:15.649Z,99699.22
2023-03-26T16:43:53.245Z,99710.00
2023-03-26T16:46:31.006Z,99722.72
2023-03-26T16:49:17.621Z,99719.41
2023-03-26T16:52:21.809Z,99716.91
2023-03-26T16:54:59.850Z,99711.91
2023-03-26T16:57:48.480Z,99626.88
2023-03-26T17:00:34.494Z,99705.34
2023-03-26T17:03:17.895Z,99728.81
2023-03-26T17:05:58.490Z,99740.41
2023-03-26T17:09:10.008Z,99747.59
2023-03-26T17:12:12.732Z,99733.91
2023-03-26T17:15:04.902Z,99688.94
2023-03-26T17:17:57.768Z,99757.81
2023-03-26T17:20:49.517Z,99726.59
2023-03-26T17:23:42.934Z,99749.34
2023-03-26T17:26:42.267Z,99761.81
2023-03-26T17:29:29.933Z,99770.72
2023-03-26T17:32:11.523Z,99756.03
2023-03-26T17:34:55.948Z,99671.78
2023-03-26T17:37:37.180Z,99745.91
2023-03-26T17:40:51.569Z,99678.22
2023-03-26T17:43:50.772Z,99724.41
2023-03-26T17:46:39.472Z,99723.75
2023-03-26T17:49:26.952Z,99777.00
2023-03-26T17:52:03.692Z,99808.59
2023-03-26T17:54:44.410Z,99784.28
2023-03-26T17:57:44.301Z,99804.47
2023-03-26T18:00:26.813Z,99788.06
2023-03-26T18:03:23.437Z,99802.06
2023-03-26T18:06:06.524Z,99707.28
2023-03-26T18:09:00.140Z,99706.50
2023-03-26T18:12:03.061Z,99825.97
2023-03-26T18:14:37.382Z,99830.38
2023-03-26T18:17:09.484Z,99817.34
2023-03-26T18:19:53.237Z,99775.63
2023-03-26T18:22:28.517Z,99827.97
2023-03-26T18:25:02.169Z,99840.28
2023-03-26T18:27:39.130Z,99840.28
2023-03-26T18:30:22.951Z,99842.97
2023-03-26T18:33:14.620Z,99853.47
2023-03-26T18:35:52.174Z,99766.41
2023-03-26T18:38:35.025Z,99851.06
2023-03-26T18:41:15.674Z,99771.78
2023-03-26T18:43:47.362Z,99848.47
2023-03-26T18:46:19.173Z,99861.59
2023-03-26T18:48:52.249Z,99798.94
2023-03-26T18:51:26.544Z,99869.56
2023-03-26T18:54:00.811Z,99877.41
2023-03-26T18:56:38.958Z,99790.28
2023-03-26T18:59:28.280Z,99868.69
2023-03-26T19:02:04.108Z,99875.81
2023-03-26T19:04:37.173Z,99822.72
2023-03-26T19:07:13.679Z,99844.50
2023-03-26T19:09:45.225Z,99856.78
2023-03-26T19:12:23.245Z,99894.34
2023-03-26T19:15:09.858Z,99868.19
2023-03-26T19:17:46.688Z,99810.78
2023-03-26T19:20:27.535Z,99882.25
2023-03-26T19:22:59.079Z,99800.34
2023-03-26T19:25:41.127Z,99861.44
2023-03-26T19:28:58.033Z,99898.09
2023-03-26T19:31:38.924Z,99880.69
2023-03-26T19:34:17.941Z,99917.41
2023-03-26T19:36:58.106Z,99910.47
2023-03-26T19:39:53.918Z,99874.72
2023-03-26T19:42:43.072Z,99845.94
2023-03-26T19:45:19.260Z,99821.59
2023-03-26T19:48:00.445Z,99899.25
2023-03-26T19:50:45.847Z,99940.34
2023-03-26T19:53:25.394Z,99938.59
2023-03-26T19:55:59.245Z,99930.75
2023-03-26T19:58:32.721Z,99922.91
2023-03-26T20:01:04.804Z,99888.88
2023-03-26T20:03:40.218Z,99950.91
2023-03-26T20:06:14.235Z,99950.91
2023-03-26T20:08:47.060Z,99858.44
2023-03-26T20:11:48.046Z,99957.06
2023-03-26T20:14:25.814Z,99872.44
2023-03-26T20:16:57.713Z,99929.22
2023-03-26T20:19:29.558Z,99962.38
2023-03-26T20:22:00.939Z,99885.59
2023-03-26T20:24:32.873Z,99973.81
2023-03-26T20:27:04.208Z,99963.34
2023-03-26T20:29:36.721Z,99907.47
2023-03-26T20:32:23.139Z,99974.72
2023-03-26T20:34:57.713Z,99977.38
2023-03-26T20:37:29.063Z,99970.38
2023-03-26T20:40:00.690Z,99994.88
2023-03-26T20:42:32.042Z,99933.72
2023-03-26T20:45:14.782Z,99938.09
2023-03-26T20:47:49.875Z,99952.94
2023-03-26T20:50:26.701Z,99903.16
2023-03-26T20:53:00.586Z,100005.38
2023-03-26T20:55:31.984Z,100010.63
2023-03-26T20:58:04.181Z,99989.69
2023-03-26T21:00:37.651Z,100004.53
2023-03-26T21:03:12.396Z,100011.53
2023-03-26T21:05:44.906Z,99998.44
2023-03-26T21:08:19.486Z,99939.88
2023-03-26T21:10:51.094Z,100020.28
2023-03-26T21:13:43.500Z,99960.84
2023-03-26T21:16:15.833Z,99973.09
2023-03-26T21:18:47.514Z,99980.06
2023-03-26T21:21:37.156Z,100036.03
2023-03-26T21:24:13.502Z,100000.19
2023-03-26T21:26:50.473Z,100044.78
2023-03-26T21:29:22.735Z,99996.69
2023-03-26T21:31:55.242Z,99951.25
2023-03-26T21:34:27.687Z,100022.91
2023-03-26T21:37:00.872Z,100005.44
2023-03-26T21:39:32.521Z,100025.53
2023-03-26T21:42:04.900Z,100073.59
2023-03-26T21:44:38.041Z,100076.19
2023-03-26T21:47:10.024Z,100081.44
2023-03-26T21:49:41.626Z,100077.97
2023-03-26T21:52:15.135Z,100079.69
2023-03-26T21:54:47.704Z,100048.16
2023-03-26T21:57:48.255Z,100099.78
2023-03-26T22:00:27.992Z,100078.75
2023-03-26T22:03:31.743Z,100085.69
2023-03-26T22:06:13.403Z,100026.16
2023-03-26T22:08:45.012Z,100032.28
2023-03-26T22:11:16.641Z,100124.13
2023-03-26T22:13:48.214Z,100126.69
2023-03-26T22:16:19.584Z,100103.94
2023-03-26T22:18:52.705Z,100107.44
2023-03-26T22:21:24.040Z,100143.28
2023-03-26T22:23:55.510Z,100117.88
2023-03-26T22:26:27.099Z,100064.41
2023-03-26T22:28:58.560Z,100130.91
2023-03-26T22:31:30.130Z,100121.25
2023-03-26T22:34:01.506Z,100150.09
2023-03-26T22:36:32.905Z,100146.53
2023-03-26T22:39:04.484Z,100121.97
2023-03-26T22:41:35.854Z,100149.06
2023-03-26T22:44:19.224Z,100145.59
2023-03-26T22:46:52.325Z,100162.19
2023-03-26T22:49:27.346Z,100170.06
2023-03-26T22:51:58.739Z,100189.28
2023-03-26T22:54:30.119Z,100090.28
2023-03-26T22:57:01.619Z,100176.09
2023-03-26T22:59:32.932Z,100184.81
2023-03-26T23:02:04.319Z,100159.41
2023-03-26T23:04:37.488Z,100191.75
2023-03-26T23:07:10.050Z,100195.22
2023-03-26T23:09:41.576Z,100118.88
2023-03-26T23:12:12.973Z,100217.81
2023-03-26T23:14:44.483Z,100159.97
2023-03-26T23:17:15.800Z,100125.75
2023-03-26T23:19:47.150Z,100212.47
2023-03-26T23:22:19.228Z,100187.94
2023-03-26T23:24:51.372Z,100214.13
2023-03-26T23:27:23.005Z,100241.25
2023-03-26T23:29:55.356Z,100206.13
2023-03-26T23:32:27.999Z,100237.69
2023-03-26T23:34:59.533Z,100200.81
2023-03-26T23:37:34.747Z,100242.00
2023-03-26T23:40:09.812Z,100222.66
2023-03-26T23:42:42.852Z,100232.28
2023-03-26T23:45:14.263Z,100233.06
2023-03-26T23:47:46.653Z,100259.28
2023-03-26T23:50:18.117Z,100255.66
2023-03-26T23:52:50.253Z,100263.56
2023-03-26T23:55:21.598Z,100274.81
2023-03-26T23:57:54.293Z,100226.47
